sensor_id;sensor_type;location;lat;lon;timestamp;pressure;altitude;pressure_sealevel;temperature;humidity
37206;BME280;23099;42.636;23.198;2022-08-02T00:01:16;92012.09;;;15.03;79.22
37206;BME280;23099;42.636;23.198;2022-08-02T00:03:42;92005.22;;;14.99;79.38
37206;BME280;23099;42.636;23.198;2022-08-02T00:06:10;92009.44;;;15.00;79.09
37206;BME280;23099;42.636;23.198;2022-08-02T00:08:37;92002.88;;;15.01;79.09
37206;BME280;23099;42.636;23.198;2022-08-02T00:11:04;92009.06;;;14.98;79.26
37206;BME280;23099;42.636;23.198;2022-08-02T00:13:31;92004.84;;;14.82;79.95
37206;BME280;23099;42.636;23.198;2022-08-02T00:15:58;92007.16;;;14.80;79.93
37206;BME280;23099;42.636;23.198;2022-08-02T00:18:25;91999.06;;;14.59;80.86
37206;BME280;23099;42.636;23.198;2022-08-02T00:20:51;92013.31;;;14.70;80.96
37206;BME280;23099;42.636;23.198;2022-08-02T00:23:19;92004.81;;;14.72;80.66
37206;BME280;23099;42.636;23.198;2022-08-02T00:25:46;92011.78;;;14.55;81.11
37206;BME280;23099;42.636;23.198;2022-08-02T00:28:13;92002.16;;;14.61;80.32
37206;BME280;23099;42.636;23.198;2022-08-02T00:30:40;92013.69;;;14.55;80.62
37206;BME280;23099;42.636;23.198;2022-08-02T00:33:06;92005.22;;;14.49;81.09
37206;BME280;23099;42.636;23.198;2022-08-02T00:35:34;92000.59;;;14.39;81.31
37206;BME280;23099;42.636;23.198;2022-08-02T00:38:02;92007.53;;;14.40;81.37
37206;BME280;23099;42.636;23.198;2022-08-02T00:40:30;92011.00;;;14.47;81.56
37206;BME280;23099;42.636;23.198;2022-08-02T00:43:02;91999.44;;;14.33;80.78
37206;BME280;23099;42.636;23.198;2022-08-02T00:45:31;92008.31;;;14.40;81.22
37206;BME280;23099;42.636;23.198;2022-08-02T00:47:58;92002.16;;;14.43;81.38
37206;BME280;23099;42.636;23.198;2022-08-02T00:50:25;91999.06;;;14.38;81.41
37206;BME280;23099;42.636;23.198;2022-08-02T00:52:52;92001.78;;;14.41;81.12
37206;BME280;23099;42.636;23.198;2022-08-02T00:55:18;91999.88;;;14.42;81.52
37206;BME280;23099;42.636;23.198;2022-08-02T00:57:47;91997.53;;;14.44;81.15
37206;BME280;23099;42.636;23.198;2022-08-02T01:00:14;92004.06;;;14.46;81.21
37206;BME280;23099;42.636;23.198;2022-08-02T01:02:41;92009.03;;;14.34;79.33
37206;BME280;23099;42.636;23.198;2022-08-02T01:05:08;91994.88;;;14.40;80.79
37206;BME280;23099;42.636;23.198;2022-08-02T01:07:36;91992.19;;;14.40;80.27
37206;BME280;23099;42.636;23.198;2022-08-02T01:10:03;91992.88;;;14.30;79.69
37206;BME280;23099;42.636;23.198;2022-08-02T01:12:30;91989.44;;;14.37;80.77
37206;BME280;23099;42.636;23.198;2022-08-02T01:15:02;91995.59;;;14.34;81.41
37206;BME280;23099;42.636;23.198;2022-08-02T01:17:35;92004.44;;;14.38;81.47
37206;BME280;23099;42.636;23.198;2022-08-02T01:20:10;91998.25;;;14.30;80.77
37206;BME280;23099;42.636;23.198;2022-08-02T01:22:54;91988.66;;;14.08;80.90
37206;BME280;23099;42.636;23.198;2022-08-02T01:25:32;91988.66;;;14.19;80.81
37206;BME280;23099;42.636;23.198;2022-08-02T01:31:07;91985.19;;;14.07;81.71
37206;BME280;23099;42.636;23.198;2022-08-02T01:33:39;91987.50;;;14.05;82.41
37206;BME280;23099;42.636;23.198;2022-08-02T01:36:10;91990.97;;;14.09;82.12
37206;BME280;23099;42.636;23.198;2022-08-02T01:38:38;91994.41;;;14.06;82.46
37206;BME280;23099;42.636;23.198;2022-08-02T01:41:07;91982.88;;;13.99;83.04
37206;BME280;23099;42.636;23.198;2022-08-02T01:43:37;91975.59;;;13.99;82.79
37206;BME280;23099;42.636;23.198;2022-08-02T01:46:05;91985.22;;;14.11;83.14
37206;BME280;23099;42.636;23.198;2022-08-02T01:48:34;91974.84;;;14.13;81.05
37206;BME280;23099;42.636;23.198;2022-08-02T01:51:02;91978.31;;;14.13;81.17
37206;BME280;23099;42.636;23.198;2022-08-02T01:53:30;91982.91;;;14.09;81.12
37206;BME280;23099;42.636;23.198;2022-08-02T01:55:58;91982.13;;;14.05;81.15
37206;BME280;23099;42.636;23.198;2022-08-02T01:58:27;91980.97;;;13.99;81.10
37206;BME280;23099;42.636;23.198;2022-08-02T02:00:57;91975.97;;;14.01;82.07
37206;BME280;23099;42.636;23.198;2022-08-02T02:03:26;91981.72;;;14.07;82.37
37206;BME280;23099;42.636;23.198;2022-08-02T02:05:55;91985.56;;;13.99;82.51
37206;BME280;23099;42.636;23.198;2022-08-02T02:08:25;91985.16;;;13.93;82.56
37206;BME280;23099;42.636;23.198;2022-08-02T02:10:54;91982.09;;;13.91;82.31
37206;BME280;23099;42.636;23.198;2022-08-02T02:13:23;91981.34;;;13.94;83.12
37206;BME280;23099;42.636;23.198;2022-08-02T02:15:53;91979.78;;;13.90;82.88
37206;BME280;23099;42.636;23.198;2022-08-02T02:18:23;91982.47;;;13.93;82.42
37206;BME280;23099;42.636;23.198;2022-08-02T02:20:50;91977.88;;;13.94;82.41
37206;BME280;23099;42.636;23.198;2022-08-02T02:23:18;91987.09;;;14.00;82.17
37206;BME280;23099;42.636;23.198;2022-08-02T02:25:45;91992.06;;;13.91;82.39
37206;BME280;23099;42.636;23.198;2022-08-02T02:28:16;91972.00;;;13.56;83.68
37206;BME280;23099;42.636;23.198;2022-08-02T02:30:48;91968.97;;;13.54;84.40
37206;BME280;23099;42.636;23.198;2022-08-02T02:33:17;91981.63;;;13.61;84.90
37206;BME280;23099;42.636;23.198;2022-08-02T02:35:48;91977.78;;;13.62;84.51
37206;BME280;23099;42.636;23.198;2022-08-02T02:38:18;91982.78;;;13.60;84.49
37206;BME280;23099;42.636;23.198;2022-08-02T02:40:46;91972.78;;;13.60;83.72
37206;BME280;23099;42.636;23.198;2022-08-02T02:43:14;91976.28;;;13.68;83.94
37206;BME280;23099;42.636;23.198;2022-08-02T02:45:43;91976.63;;;13.59;83.30
37206;BME280;23099;42.636;23.198;2022-08-02T02:48:12;91981.59;;;13.50;83.72
37206;BME280;23099;42.636;23.198;2022-08-02T02:50:40;91970.88;;;13.61;83.97
37206;BME280;23099;42.636;23.198;2022-08-02T02:53:09;91978.16;;;13.60;84.01
37206;BME280;23099;42.636;23.198;2022-08-02T02:55:37;91978.94;;;13.61;83.79
37206;BME280;23099;42.636;23.198;2022-08-02T02:58:05;91976.25;;;13.61;83.92
37206;BME280;23099;42.636;23.198;2022-08-02T03:00:33;91979.28;;;13.49;83.63
37206;BME280;23099;42.636;23.198;2022-08-02T03:03:17;91966.63;;;13.49;83.62
37206;BME280;23099;42.636;23.198;2022-08-02T03:05:44;91972.00;;;13.56;83.83
37206;BME280;23099;42.636;23.198;2022-08-02T03:08:12;91971.66;;;13.54;83.41
37206;BME280;23099;42.636;23.198;2022-08-02T03:10:39;91973.94;;;13.52;84.52
37206;BME280;23099;42.636;23.198;2022-08-02T03:13:07;91973.09;;;13.34;84.56
37206;BME280;23099;42.636;23.198;2022-08-02T03:15:35;91967.75;;;13.37;84.58
37206;BME280;23099;42.636;23.198;2022-08-02T03:18:04;91964.66;;;13.42;84.68
37206;BME280;23099;42.636;23.198;2022-08-02T03:20:32;91967.41;;;13.50;84.05
37206;BME280;23099;42.636;23.198;2022-08-02T03:22:59;91963.56;;;13.51;83.76
37206;BME280;23099;42.636;23.198;2022-08-02T03:25:27;91965.88;;;13.52;84.43
37206;BME280;23099;42.636;23.198;2022-08-02T03:27:53;91964.34;;;13.51;82.88
37206;BME280;23099;42.636;23.198;2022-08-02T03:30:20;91970.88;;;13.54;82.83
37206;BME280;23099;42.636;23.198;2022-08-02T03:32:48;91966.63;;;13.49;83.34
37206;BME280;23099;42.636;23.198;2022-08-02T03:35:17;91963.94;;;13.49;84.06
37206;BME280;23099;42.636;23.198;2022-08-02T03:37:45;91967.41;;;13.53;83.89
37206;BME280;23099;42.636;23.198;2022-08-02T03:40:13;91967.78;;;13.52;83.99
37206;BME280;23099;42.636;23.198;2022-08-02T03:42:41;91966.59;;;13.42;83.98
37206;BME280;23099;42.636;23.198;2022-08-02T03:45:09;91966.59;;;13.45;85.07
37206;BME280;23099;42.636;23.198;2022-08-02T03:47:38;91961.22;;;13.42;84.36
37206;BME280;23099;42.636;23.198;2022-08-02T03:50:06;91973.16;;;13.48;84.28
37206;BME280;23099;42.636;23.198;2022-08-02T03:52:34;91969.69;;;13.48;83.63
37206;BME280;23099;42.636;23.198;2022-08-02T03:55:01;91973.91;;;13.49;83.98
37206;BME280;23099;42.636;23.198;2022-08-02T03:57:28;91975.41;;;13.42;83.47
37206;BME280;23099;42.636;23.198;2022-08-02T03:59:56;91982.31;;;13.40;83.63
37206;BME280;23099;42.636;23.198;2022-08-02T04:02:23;91981.19;;;13.44;84.25
37206;BME280;23099;42.636;23.198;2022-08-02T04:04:50;91988.50;;;13.51;83.76
37206;BME280;23099;42.636;23.198;2022-08-02T04:07:17;91989.66;;;13.57;84.25
37206;BME280;23099;42.636;23.198;2022-08-02T04:09:43;91990.81;;;13.56;84.19
37206;BME280;23099;42.636;23.198;2022-08-02T04:12:10;91989.63;;;13.47;84.26
37206;BME280;23099;42.636;23.198;2022-08-02T04:14:37;91989.28;;;13.55;84.72
37206;BME280;23099;42.636;23.198;2022-08-02T04:17:07;91990.47;;;13.65;84.69
37206;BME280;23099;42.636;23.198;2022-08-02T04:19:38;91993.16;;;13.65;84.23
37206;BME280;23099;42.636;23.198;2022-08-02T04:22:08;91993.53;;;13.67;83.96
37206;BME280;23099;42.636;23.198;2022-08-02T04:24:40;91994.69;;;13.66;83.75
37206;BME280;23099;42.636;23.198;2022-08-02T04:27:09;91997.41;;;13.80;83.74
37206;BME280;23099;42.636;23.198;2022-08-02T04:29:37;91997.75;;;13.71;84.25
37206;BME280;23099;42.636;23.198;2022-08-02T04:32:06;92005.06;;;13.67;83.35
37206;BME280;23099;42.636;23.198;2022-08-02T04:34:33;92002.00;;;13.72;83.86
37206;BME280;23099;42.636;23.198;2022-08-02T04:36:59;91995.88;;;13.75;84.09
37206;BME280;23099;42.636;23.198;2022-08-02T04:39:27;91995.88;;;13.79;84.37
37206;BME280;23099;42.636;23.198;2022-08-02T04:41:53;91999.34;;;13.87;83.80
37206;BME280;23099;42.636;23.198;2022-08-02T04:44:20;92001.25;;;13.86;83.64
37206;BME280;23099;42.636;23.198;2022-08-02T04:46:47;91995.94;;;13.97;83.97
37206;BME280;23099;42.636;23.198;2022-08-02T04:49:15;92002.06;;;13.94;83.96
37206;BME280;23099;42.636;23.198;2022-08-02T04:51:42;91997.47;;;13.94;83.79
37206;BME280;23099;42.636;23.198;2022-08-02T04:54:09;92002.44;;;13.92;84.64
37206;BME280;23099;42.636;23.198;2022-08-02T04:56:36;92006.28;;;13.95;84.81
37206;BME280;23099;42.636;23.198;2022-08-02T04:59:04;91994.38;;;14.03;85.03
37206;BME280;23099;42.636;23.198;2022-08-02T05:01:30;91993.66;;;14.13;84.53
37206;BME280;23099;42.636;23.198;2022-08-02T05:03:57;91995.56;;;14.20;84.32
37206;BME280;23099;42.636;23.198;2022-08-02T05:06:26;91995.59;;;14.27;84.44
37206;BME280;23099;42.636;23.198;2022-08-02T05:08:52;92001.72;;;14.24;83.60
37206;BME280;23099;42.636;23.198;2022-08-02T05:11:19;91998.28;;;14.37;84.16
37206;BME280;23099;42.636;23.198;2022-08-02T05:13:46;91988.31;;;14.48;84.13
37206;BME280;23099;42.636;23.198;2022-08-02T05:16:13;92003.69;;;14.59;83.43
37206;BME280;23099;42.636;23.198;2022-08-02T05:18:40;92005.25;;;14.70;82.62
37206;BME280;23099;42.636;23.198;2022-08-02T05:21:07;92004.84;;;14.82;82.65
37206;BME280;23099;42.636;23.198;2022-08-02T05:23:35;92005.59;;;14.86;83.21
37206;BME280;23099;42.636;23.198;2022-08-02T05:26:02;91994.44;;;14.88;84.23
37206;BME280;23099;42.636;23.198;2022-08-02T05:28:28;92002.88;;;15.01;84.25
37206;BME280;23099;42.636;23.198;2022-08-02T05:30:55;92002.88;;;15.11;83.54
37206;BME280;23099;42.636;23.198;2022-08-02T05:33:22;92008.22;;;15.18;82.18
37206;BME280;23099;42.636;23.198;2022-08-02T05:35:49;92009.00;;;15.26;81.23
37206;BME280;23099;42.636;23.198;2022-08-02T05:38:15;92008.19;;;15.36;82.95
37206;BME280;23099;42.636;23.198;2022-08-02T05:40:43;92021.25;;;15.48;82.87
37206;BME280;23099;42.636;23.198;2022-08-02T05:43:11;92016.59;;;15.63;81.05
37206;BME280;23099;42.636;23.198;2022-08-02T05:45:38;92021.53;;;15.79;80.03
37206;BME280;23099;42.636;23.198;2022-08-02T05:48:05;92023.78;;;15.91;79.15
37206;BME280;23099;42.636;23.198;2022-08-02T05:50:33;92026.03;;;16.03;76.67
37206;BME280;23099;42.636;23.198;2022-08-02T05:53:08;92021.00;;;16.12;77.70
37206;BME280;23099;42.636;23.198;2022-08-02T05:55:43;92023.25;;;16.17;76.55
37206;BME280;23099;42.636;23.198;2022-08-02T06:01:02;92027.41;;;16.33;72.47
37206;BME280;23099;42.636;23.198;2022-08-02T06:03:31;92030.09;;;16.40;71.70
37206;BME280;23099;42.636;23.198;2022-08-02T06:06:05;92035.75;;;16.56;70.78
37206;BME280;23099;42.636;23.198;2022-08-02T06:08:36;92026.47;;;16.60;74.05
37206;BME280;23099;42.636;23.198;2022-08-02T06:11:04;92042.63;;;16.71;73.88
37206;BME280;23099;42.636;23.198;2022-08-02T06:13:33;92037.19;;;16.75;70.30
37206;BME280;23099;42.636;23.198;2022-08-02T06:16:01;92048.22;;;16.91;69.68
37206;BME280;23099;42.636;23.198;2022-08-02T06:18:28;92044.34;;;16.95;69.60
37206;BME280;23099;42.636;23.198;2022-08-02T06:21:00;92043.84;;;17.08;70.75
37206;BME280;23099;42.636;23.198;2022-08-02T06:23:28;92051.16;;;17.14;69.02
37206;BME280;23099;42.636;23.198;2022-08-02T06:25:56;92051.84;;;17.22;70.20
37206;BME280;23099;42.636;23.198;2022-08-02T06:28:24;92049.50;;;17.24;69.43
37206;BME280;23099;42.636;23.198;2022-08-02T06:30:53;92059.84;;;17.32;67.89
37206;BME280;23099;42.636;23.198;2022-08-02T06:33:20;92057.06;;;17.43;65.43
37206;BME280;23099;42.636;23.198;2022-08-02T06:35:58;92056.94;;;17.54;65.61
37206;BME280;23099;42.636;23.198;2022-08-02T06:38:39;92058.38;;;17.62;66.06
37206;BME280;23099;42.636;23.198;2022-08-02T06:41:08;92064.56;;;17.66;64.55
37206;BME280;23099;42.636;23.198;2022-08-02T06:43:42;92055.97;;;17.75;63.66
37206;BME280;23099;42.636;23.198;2022-08-02T06:46:11;92057.00;;;17.88;61.27
37206;BME280;23099;42.636;23.198;2022-08-02T06:48:38;92061.91;;;17.96;63.51
37206;BME280;23099;42.636;23.198;2022-08-02T06:51:04;92054.06;;;18.06;61.88
37206;BME280;23099;42.636;23.198;2022-08-02T06:53:31;92060.94;;;18.14;65.58
37206;BME280;23099;42.636;23.198;2022-08-02T06:55:59;92051.56;;;18.18;66.80
37206;BME280;23099;42.636;23.198;2022-08-02T06:58:25;92049.72;;;18.15;67.44
37206;BME280;23099;42.636;23.198;2022-08-02T07:00:52;92055.41;;;18.21;61.86
37206;BME280;23099;42.636;23.198;2022-08-02T07:03:20;92053.06;;;18.23;60.82
37206;BME280;23099;42.636;23.198;2022-08-02T07:05:49;92061.91;;;18.27;64.38
37206;BME280;23099;42.636;23.198;2022-08-02T07:08:17;92056.94;;;18.22;66.23
37206;BME280;23099;42.636;23.198;2022-08-02T07:10:44;92052.53;;;18.35;64.49
37206;BME280;23099;42.636;23.198;2022-08-02T07:13:11;92059.28;;;18.50;65.05
37206;BME280;23099;42.636;23.198;2022-08-02T07:15:38;92058.47;;;18.53;62.35
37206;BME280;23099;42.636;23.198;2022-08-02T07:18:05;92049.03;;;18.65;59.75
37206;BME280;23099;42.636;23.198;2022-08-02T07:20:33;92064.38;;;18.75;62.88
37206;BME280;23099;42.636;23.198;2022-08-02T07:23:00;92054.53;;;18.88;62.24
37206;BME280;23099;42.636;23.198;2022-08-02T07:25:27;92049.66;;;19.03;61.92
37206;BME280;23099;42.636;23.198;2022-08-02T07:27:54;92056.41;;;19.15;64.23
37206;BME280;23099;42.636;23.198;2022-08-02T07:30:20;92048.88;;;19.26;63.06
37206;BME280;23099;42.636;23.198;2022-08-02T07:32:47;92046.09;;;19.29;59.99
37206;BME280;23099;42.636;23.198;2022-08-02T07:35:14;92050.09;;;19.45;61.46
37206;BME280;23099;42.636;23.198;2022-08-02T07:37:42;92047.94;;;19.59;58.81
37206;BME280;23099;42.636;23.198;2022-08-02T07:40:12;92047.84;;;19.63;59.55
37206;BME280;23099;42.636;23.198;2022-08-02T07:42:39;92048.50;;;19.70;59.09
37206;BME280;23099;42.636;23.198;2022-08-02T07:45:06;92039.75;;;19.83;59.37
37206;BME280;23099;42.636;23.198;2022-08-02T07:47:35;92045.72;;;19.94;59.75
37206;BME280;23099;42.636;23.198;2022-08-02T07:50:03;92042.53;;;19.99;56.59
37206;BME280;23099;42.636;23.198;2022-08-02T07:52:30;92045.78;;;20.10;57.78
37206;BME280;23099;42.636;23.198;2022-08-02T07:54:58;92044.31;;;20.25;55.86
37206;BME280;23099;42.636;23.198;2022-08-02T07:57:25;92038.00;;;20.32;53.76
37206;BME280;23099;42.636;23.198;2022-08-02T07:59:52;92039.75;;;20.42;57.50
37206;BME280;23099;42.636;23.198;2022-08-02T08:02:19;92036.69;;;20.40;56.92
37206;BME280;23099;42.636;23.198;2022-08-02T08:04:45;92047.81;;;20.45;55.33
37206;BME280;23099;42.636;23.198;2022-08-02T08:07:12;92033.66;;;20.54;55.02
37206;BME280;23099;42.636;23.198;2022-08-02T08:09:39;92042.59;;;20.71;53.50
37206;BME280;23099;42.636;23.198;2022-08-02T08:12:08;92045.84;;;20.82;55.09
37206;BME280;23099;42.636;23.198;2022-08-02T08:14:36;92040.31;;;20.86;57.30
37206;BME280;23099;42.636;23.198;2022-08-02T08:17:03;92044.31;;;20.97;54.28
37206;BME280;23099;42.636;23.198;2022-08-02T08:19:30;92036.50;;;20.99;55.61
37206;BME280;23099;42.636;23.198;2022-08-02T08:21:57;92043.97;;;20.95;52.99
37206;BME280;23099;42.636;23.198;2022-08-02T08:24:25;92030.72;;;20.97;54.35
37206;BME280;23099;42.636;23.198;2022-08-02T08:26:52;92043.75;;;21.06;54.42
37206;BME280;23099;42.636;23.198;2022-08-02T08:29:20;92040.16;;;21.09;55.10
37206;BME280;23099;42.636;23.198;2022-08-02T08:31:47;92047.72;;;21.17;52.71
37206;BME280;23099;42.636;23.198;2022-08-02T08:34:14;92039.25;;;21.15;53.96
37206;BME280;23099;42.636;23.198;2022-08-02T08:36:41;92040.88;;;21.29;54.61
37206;BME280;23099;42.636;23.198;2022-08-02T08:39:08;92036.00;;;21.37;56.41
37206;BME280;23099;42.636;23.198;2022-08-02T08:41:35;92041.97;;;21.32;58.15
37206;BME280;23099;42.636;23.198;2022-08-02T08:44:02;92051.06;;;21.41;51.71
37206;BME280;23099;42.636;23.198;2022-08-02T08:46:32;92039.84;;;21.39;50.39
37206;BME280;23099;42.636;23.198;2022-08-02T08:49:05;92038.47;;;21.47;53.65
37206;BME280;23099;42.636;23.198;2022-08-02T08:51:37;92046.88;;;21.53;54.08
37206;BME280;23099;42.636;23.198;2022-08-02T08:54:11;92038.97;;;21.59;50.47
37206;BME280;23099;42.636;23.198;2022-08-02T08:56:41;92041.19;;;21.64;46.94
37206;BME280;23099;42.636;23.198;2022-08-02T08:59:08;92043.69;;;21.71;49.82
37206;BME280;23099;42.636;23.198;2022-08-02T09:01:36;92034.91;;;21.79;50.91
37206;BME280;23099;42.636;23.198;2022-08-02T09:04:04;92036.00;;;21.82;50.99
37206;BME280;23099;42.636;23.198;2022-08-02T09:06:30;92035.66;;;21.80;50.74
37206;BME280;23099;42.636;23.198;2022-08-02T09:08:57;92040.03;;;21.77;50.79
37206;BME280;23099;42.636;23.198;2022-08-02T09:11:24;92044.00;;;21.89;50.49
37206;BME280;23099;42.636;23.198;2022-08-02T09:13:52;92044.06;;;22.02;51.44
37206;BME280;23099;42.636;23.198;2022-08-02T09:16:27;92041.47;;;22.11;51.37
37206;BME280;23099;42.636;23.198;2022-08-02T09:18:56;92041.06;;;22.25;50.33
37206;BME280;23099;42.636;23.198;2022-08-02T09:21:23;92045.78;;;22.37;53.02
37206;BME280;23099;42.636;23.198;2022-08-02T09:23:59;92039.47;;;22.40;48.23
37206;BME280;23099;42.636;23.198;2022-08-02T09:26:26;92044.50;;;22.42;49.40
37206;BME280;23099;42.636;23.198;2022-08-02T09:28:59;92041.00;;;22.41;48.44
37206;BME280;23099;42.636;23.198;2022-08-02T09:31:26;92049.19;;;22.41;49.83
37206;BME280;23099;42.636;23.198;2022-08-02T09:33:57;92043.88;;;22.50;48.99
37206;BME280;23099;42.636;23.198;2022-08-02T09:36:25;92043.31;;;22.55;47.72
37206;BME280;23099;42.636;23.198;2022-08-02T09:38:53;92035.69;;;22.50;46.17
37206;BME280;23099;42.636;23.198;2022-08-02T09:41:21;92038.41;;;22.50;46.52
37206;BME280;23099;42.636;23.198;2022-08-02T09:43:48;92034.81;;;22.53;46.91
37206;BME280;23099;42.636;23.198;2022-08-02T09:46:16;92030.56;;;22.65;46.32
37206;BME280;23099;42.636;23.198;2022-08-02T09:48:48;92025.47;;;22.80;46.67
37206;BME280;23099;42.636;23.198;2022-08-02T09:51:21;92025.19;;;22.90;47.24
37206;BME280;23099;42.636;23.198;2022-08-02T09:53:51;92021.78;;;22.86;45.53
37206;BME280;23099;42.636;23.198;2022-08-02T09:56:19;92015.38;;;22.93;46.29
37206;BME280;23099;42.636;23.198;2022-08-02T09:58:47;92018.63;;;23.01;46.58
37206;BME280;23099;42.636;23.198;2022-08-02T10:01:14;92018.94;;;23.15;45.57
37206;BME280;23099;42.636;23.198;2022-08-02T10:03:55;92020.00;;;23.31;43.39
37206;BME280;23099;42.636;23.198;2022-08-02T10:06:23;92011.47;;;23.41;45.40
37206;BME280;23099;42.636;23.198;2022-08-02T10:08:51;92017.88;;;23.60;43.71
37206;BME280;23099;42.636;23.198;2022-08-02T10:11:19;92008.34;;;23.77;45.23
37206;BME280;23099;42.636;23.198;2022-08-02T10:13:47;92018.31;;;23.93;45.13
37206;BME280;23099;42.636;23.198;2022-08-02T10:16:14;92013.91;;;23.95;44.34
37206;BME280;23099;42.636;23.198;2022-08-02T10:18:42;92018.63;;;24.17;44.87
37206;BME280;23099;42.636;23.198;2022-08-02T10:21:12;92018.59;;;24.29;44.34
37206;BME280;23099;42.636;23.198;2022-08-02T10:23:42;92016.97;;;24.41;43.97
37206;BME280;23099;42.636;23.198;2022-08-02T10:26:14;92012.97;;;24.55;43.30
37206;BME280;23099;42.636;23.198;2022-08-02T10:28:45;92007.88;;;24.66;40.98
37206;BME280;23099;42.636;23.198;2022-08-02T10:31:15;92003.84;;;24.80;41.73
37206;BME280;23099;42.636;23.198;2022-08-02T10:33:43;92011.94;;;24.92;41.46
37206;BME280;23099;42.636;23.198;2022-08-02T10:36:12;92016.13;;;25.15;43.09
37206;BME280;23099;42.636;23.198;2022-08-02T10:38:42;92006.78;;;25.44;41.51
37206;BME280;23099;42.636;23.198;2022-08-02T10:41:10;92008.97;;;25.67;38.78
37206;BME280;23099;42.636;23.198;2022-08-02T10:43:43;91999.09;;;25.97;41.54
37206;BME280;23099;42.636;23.198;2022-08-02T10:46:24;91997.41;;;26.18;39.33
37206;BME280;23099;42.636;23.198;2022-08-02T10:49:06;92004.56;;;26.24;39.22
37206;BME280;23099;42.636;23.198;2022-08-02T10:54:19;92006.06;;;26.44;39.04
37206;BME280;23099;42.636;23.198;2022-08-02T10:56:47;92001.28;;;26.71;37.95
37206;BME280;23099;42.636;23.198;2022-08-02T10:59:25;91997.56;;;26.93;39.95
37206;BME280;23099;42.636;23.198;2022-08-02T11:01:53;91997.78;;;27.13;39.16
37206;BME280;23099;42.636;23.198;2022-08-02T11:04:27;92001.19;;;27.32;38.62
37206;BME280;23099;42.636;23.198;2022-08-02T11:07:10;91999.72;;;27.55;38.03
37206;BME280;23099;42.636;23.198;2022-08-02T11:09:40;91993.75;;;27.56;38.26
37206;BME280;23099;42.636;23.198;2022-08-02T11:12:08;91996.38;;;27.51;37.50
37206;BME280;23099;42.636;23.198;2022-08-02T11:14:38;91992.25;;;27.55;36.87
37206;BME280;23099;42.636;23.198;2022-08-02T11:20:15;91994.00;;;28.06;36.88
37206;BME280;23099;42.636;23.198;2022-08-02T11:22:43;91997.13;;;28.37;36.08
37206;BME280;23099;42.636;23.198;2022-08-02T11:25:30;91999.50;;;28.06;34.84
37206;BME280;23099;42.636;23.198;2022-08-02T11:27:58;91997.47;;;27.44;36.82
37206;BME280;23099;42.636;23.198;2022-08-02T11:30:25;91998.97;;;27.21;37.29
37206;BME280;23099;42.636;23.198;2022-08-02T11:32:54;91999.69;;;26.89;38.92
37206;BME280;23099;42.636;23.198;2022-08-02T11:35:21;91997.50;;;27.11;39.11
37206;BME280;23099;42.636;23.198;2022-08-02T11:37:48;91997.44;;;27.53;37.34
37206;BME280;23099;42.636;23.198;2022-08-02T11:40:16;92002.84;;;27.86;36.04
37206;BME280;23099;42.636;23.198;2022-08-02T11:42:46;91999.88;;;28.13;35.32
37206;BME280;23099;42.636;23.198;2022-08-02T11:45:15;92003.19;;;28.27;35.96
37206;BME280;23099;42.636;23.198;2022-08-02T11:47:46;91996.75;;;28.44;35.78
37206;BME280;23099;42.636;23.198;2022-08-02T11:50:13;91990.94;;;28.72;34.93
37206;BME280;23099;42.636;23.198;2022-08-02T11:52:41;91984.53;;;28.90;37.43
37206;BME280;23099;42.636;23.198;2022-08-02T11:55:09;91994.25;;;29.20;37.33
37206;BME280;23099;42.636;23.198;2022-08-02T11:57:36;91988.69;;;29.35;32.78
37206;BME280;23099;42.636;23.198;2022-08-02T12:00:14;91980.56;;;29.40;34.50
37206;BME280;23099;42.636;23.198;2022-08-02T12:02:44;91986.63;;;29.30;33.66
37206;BME280;23099;42.636;23.198;2022-08-02T12:05:16;91988.03;;;28.90;37.58
37206;BME280;23099;42.636;23.198;2022-08-02T12:07:44;91987.06;;;28.78;35.05
37206;BME280;23099;42.636;23.198;2022-08-02T12:10:13;91991.06;;;28.77;35.10
37206;BME280;23099;42.636;23.198;2022-08-02T12:12:50;91991.84;;;28.93;33.64
37206;BME280;23099;42.636;23.198;2022-08-02T12:15:30;91996.75;;;28.89;34.35
37206;BME280;23099;42.636;23.198;2022-08-02T12:17:57;91984.31;;;29.08;34.50
37206;BME280;23099;42.636;23.198;2022-08-02T12:20:42;91985.78;;;29.38;32.67
37206;BME280;23099;42.636;23.198;2022-08-02T12:23:09;91985.78;;;29.38;33.67
37206;BME280;23099;42.636;23.198;2022-08-02T12:25:36;91990.13;;;29.30;34.21
37206;BME280;23099;42.636;23.198;2022-08-02T12:28:14;91989.53;;;29.06;34.34
37206;BME280;23099;42.636;23.198;2022-08-02T12:30:53;91991.06;;;29.07;34.42
37206;BME280;23099;42.636;23.198;2022-08-02T12:33:22;92000.19;;;28.83;35.21
37206;BME280;23099;42.636;23.198;2022-08-02T12:35:49;91993.53;;;28.61;35.08
37206;BME280;23099;42.636;23.198;2022-08-02T12:38:16;91995.97;;;28.44;35.58
37206;BME280;23099;42.636;23.198;2022-08-02T12:40:43;91993.31;;;28.35;36.49
37206;BME280;23099;42.636;23.198;2022-08-02T12:43:17;91991.19;;;28.15;34.83
37206;BME280;23099;42.636;23.198;2022-08-02T12:45:45;91996.97;;;28.17;35.50
37206;BME280;23099;42.636;23.198;2022-08-02T12:48:15;91982.59;;;28.22;36.48
37206;BME280;23099;42.636;23.198;2022-08-02T12:50:42;91984.13;;;28.23;35.01
37206;BME280;23099;42.636;23.198;2022-08-02T12:53:10;91984.22;;;28.29;36.68
37206;BME280;23099;42.636;23.198;2022-08-02T12:55:47;91987.63;;;28.24;33.89
37206;BME280;23099;42.636;23.198;2022-08-02T13:43:47;91990.09;;;26.24;38.91
37206;BME280;23099;42.636;23.198;2022-08-02T13:46:14;91987.06;;;26.31;38.62
37206;BME280;23099;42.636;23.198;2022-08-02T13:48:41;91981.41;;;26.44;39.02
37206;BME280;23099;42.636;23.198;2022-08-02T13:51:08;91981.84;;;26.51;38.30
37206;BME280;23099;42.636;23.198;2022-08-02T13:53:36;91983.78;;;26.69;38.59
37206;BME280;23099;42.636;23.198;2022-08-02T13:56:03;91983.59;;;26.82;39.62